Saint Rocks, Vermont
Current Conditions -  °F | °C
As of 10:15 PM on Wednesday 22 Oct 2014 (Local Time) from KFSO Reporting Station
Overcast Overcast  
Wind Chill: 40°   Ceiling: 9000
Heat Index: 46°   Visibility: 10mi
Dew Point: 37°   Wind: 14mph
Humidity: 69%   Direction: 10°N
Pressure: 30.15"   Gusts: 18mph
Location:  44.8776°N, 72.9201°W
Report Text: KFSO 230215Z AUTO 01012G16KT 10SM SCT040 OVC090 08/03 A3015 RMK AO2 T00790025
Loading
Personal Weather Stations






























Interactive Weather Map
Tropical Storm Tracking
New forecast layout! Learn more

10-Day Weather Forecast

Advertisements
Track Severe Weather on mobile